METAR Data
IDs: Format: Raw Decoded Include TAF

Data at: 1546 UTC 18 Aug 2019

KCAV 181535Z AUTO 29005G10KT 10SM BKN013 21/19 A2986 RMK AO2 PWINO
KCAV 181515Z AUTO 29006KT 10SM SCT010 BKN013 20/19 A2986 RMK AO2 PWINO
KCAV 181455Z AUTO 26005KT 10SM SCT009 BKN013 20/19 A2987 RMK AO2 PWINO
KCAV 181435Z AUTO 24005KT 10SM CLR 19/18 A2986 RMK AO2 PWINO
KCAV 181415Z AUTO 21007KT 10SM CLR 19/18 A2986 RMK AO2 PWINO
KCAV 181355Z AUTO 21005KT 18/18 A2987 RMK AO2 PWINO
KCAV 181335Z AUTO 22005KT 10SM CLR 18/18 A2987 RMK AO2 PWINO
KCAV 181315Z AUTO 23004KT 10SM FEW008 FEW012 18/17 A2987 RMK AO2 PWINO
KCAV 181255Z AUTO 22004KT 10SM BKN007 BKN013 BKN032 17/17 A2986 RMK AO2 PWINO
KCAV 181235Z AUTO 21006KT 10SM OVC007 17/17 A2986 RMK AO2 PWINO
KCAV 181215Z AUTO 21009KT 10SM BKN007 17/17 A2985 RMK AO2 PWINO
KCAV 181155Z AUTO 21008KT 10SM FEW008 17/17 A2983 RMK AO2 PWINO
KCAV 181135Z AUTO 21005KT 10SM CLR 17/17 A2980 RMK AO2 PWINO
KCAV 181115Z AUTO 20008KT 10SM FEW045 SCT070 BKN120 17/17 A2979 RMK AO2 PWINO
KCAV 181055Z AUTO 18007KT 10SM FEW047 SCT060 BKN080 17/17 A2974 RMK AO2 PWINO
KCAV 181035Z AUTO 22005KT 10SM FEW015 SCT048 BKN080 17/17 A2973 RMK AO2 PWINO
KCAV 181015Z AUTO 23004KT 10SM FEW013 SCT042 BKN085 17/17 A2973 RMK AO2 PWINO
KCAV 180955Z AUTO 12006KT 8SM FEW034 SCT050 BKN065 17/17 A2960 RMK AO2 P0007 PWINO
KCAV 180935Z AUTO 00000KT 6SM BR BKN033 BKN041 OVC075 17/17 A2967 RMK AO2 PWINO
KCAV 180915Z AUTO 28004G11KT 6SM BR BKN034 BKN043 OVC110 17/17 A2973 RMK AO2 PWINO
KCAV 180855Z AUTO 28009G16KT 5SM BR FEW028 BKN036 OVC070 17/17 A2977 RMK AO2 P0008 PWINO
KCAV 180835Z AUTO 36005KT 6SM BR FEW036 BKN048 OVC070 17/17 A2976 RMK AO2 PWINO
KCAV 180815Z AUTO 14006KT 7SM BKN040 BKN055 OVC070 17/17 A2976 RMK AO2 PWINO
KCAV 180755Z AUTO 00000KT 8SM FEW005 BKN039 OVC075 17/17 A2978 RMK AO2 P0023 PWINO
KCAV 180735Z AUTO VRB03KT 5SM BR BKN037 BKN049 OVC075 17/17 A2977 RMK AO2 PWINO
KCAV 180715Z AUTO 30010KT 3SM BR BKN003 SCT025 OVC041 17/17 A2980 RMK AO2 PWINO
KCAV 180655Z AUTO 24006G12KT BKN003 BKN017 OVC065 18/17 A2983 RMK AO2 P0041 PWINO
KCAV 180635Z AUTO 28017G28KT 230V310 10SM SCT065 22/21 A2979 RMK AO2 PWINO
KCAV 180615Z AUTO 16009KT 10SM CLR 22/21 A2971 RMK AO2 PWINO
KCAV 180555Z AUTO 15009KT 10SM CLR 21/21 A2972 RMK AO2 PWINO
KCAV 180535Z AUTO 15008KT 10SM FEW021 FEW027 FEW031 21/21 A2973 RMK AO2 PWINO
KCAV 180515Z AUTO 14009KT 10SM SCT022 SCT031 OVC100 21/20 A2975 RMK AO2 PWINO
KCAV 180455Z AUTO 14006KT 10SM FEW024 FEW029 BKN100 21/20 A2976 RMK AO2 PWINO
KCAV 180435Z AUTO 15007G13KT 10SM SCT100 22/20 A2975 RMK AO2 PWINO
KCAV 180415Z AUTO 14009KT 10SM BKN110 22/20 A2974 RMK AO2 PWINO
KCAV 180355Z AUTO 14009KT 10SM BKN110 22/20 A2975 RMK AO2 PWINO
KCAV 180335Z AUTO 13009KT 10SM BKN110 22/20 A2975 RMK AO2 PWINO
KCAV 180315Z AUTO 14009KT 10SM SCT110 22/20 A2975 RMK AO2 PWINO
KCAV 180255Z AUTO 14012G17KT 10SM CLR 22/21 A2975 RMK AO2 PWINO
KCAV 180235Z AUTO 13010KT 10SM CLR 22/21 A2974 RMK AO2 PWINO
KCAV 180215Z AUTO 14010KT 10SM CLR 23/21 A2975 RMK AO2 PWINO
KCAV 180155Z AUTO 14008KT 10SM FEW060 SCT100 23/21 A2975 RMK AO2 PWINO
KCAV 180135Z AUTO 15008KT 10SM SCT100 23/21 A2975 RMK AO2 PWINO
KCAV 180115Z AUTO 15008KT 10SM CLR 23/21 A2975 RMK AO2 PWINO
KCAV 180055Z AUTO 14008KT 10SM CLR 24/21 A2974 RMK AO2 PWINO
KCAV 180035Z AUTO 16009KT 10SM CLR 25/21 A2976 RMK AO2 PWINO
KCAV 180015Z AUTO 15010KT 10SM CLR 26/21 A2976 RMK AO2 PWINO
KCAV 172355Z AUTO 15007KT 10SM CLR 26/21 A2976 RMK AO2 PWINO
KCAV 172335Z AUTO 15007KT 10SM CLR 26/22 A2976 RMK AO2 PWINO
KCAV 172315Z AUTO 15005KT 10SM CLR 26/21 A2977 RMK AO2 PWINO
KCAV 172255Z AUTO 16007KT 10SM CLR 26/21 A2978 RMK AO2 PWINO
KCAV 172235Z AUTO 17008KT 10SM CLR 26/21 A2980 RMK AO2 PWINO
KCAV 172215Z AUTO 19008KT 10SM FEW030 FEW037 26/21 A2981 RMK AO2 PWINO
KCAV 172155Z AUTO 19007G13KT 10SM FEW028 BKN037 26/21 A2981 RMK AO2 PWINO
KCAV 172135Z AUTO 18009KT 10SM FEW027 SCT032 SCT040 26/21 A2981 RMK AO2 PWINO
KCAV 172115Z AUTO 16009KT 10SM FEW027 SCT032 27/21 A2981 RMK AO2 PWINO
KCAV 172055Z AUTO 16008KT 10SM SCT028 SCT033 27/21 A2981 RMK AO2 PWINO
KCAV 172035Z AUTO 17009KT 10SM FEW025 FEW030 FEW036 27/21 A2982 RMK AO2 PWINO
KCAV 172015Z AUTO 18008KT 150V210 10SM SCT024 BKN031 BKN037 26/21 A2982 RMK AO2 PWINO
KCAV 171955Z AUTO 16008KT 10SM BKN026 OVC031 26/21 A2983 RMK AO2 PWINO
KCAV 171935Z AUTO 16008KT 10SM OVC024 25/21 A2983 RMK AO2 PWINO
KCAV 171915Z AUTO 18010KT 10SM BKN021 OVC025 25/21 A2984 RMK AO2 PWINO
KCAV 171855Z AUTO VRB06G13KT 140V200 10SM OVC021 25/21 A2984 RMK AO2 PWINO
KCAV 171835Z AUTO 14008G13KT 10SM BKN020 26/21 A2984 RMK AO2 PWINO
KCAV 171815Z AUTO 14010KT 10SM OVC020 25/21 A2984 RMK AO2 PWINO
KCAV 171755Z AUTO 15009KT 10SM OVC020 25/20 A2985 RMK AO2 PWINO
KCAV 171735Z AUTO 13008G14KT 090V160 10SM SCT021 25/21 A2984 RMK AO2 PWINO
KCAV 171715Z AUTO 14011KT 10SM CLR 25/20 A2984 RMK AO2 PWINO
KCAV 171655Z AUTO 11008KT 10SM CLR 25/20 A2984 RMK AO2 PWINO
KCAV 171635Z AUTO 11008KT 10SM CLR 24/19 A2984 RMK AO2 PWINO
KCAV 171615Z AUTO 12009KT 10SM FEW021 23/19 A2984 RMK AO2 PWINO
KCAV 171555Z AUTO 12010KT 10SM BKN019 BKN024 23/18 A2984 RMK AO2 PWINO
KCAV 171535Z AUTO 13009KT 10SM OVC019 23/18 A2985 RMK AO2 PWINO
KCAV 171515Z AUTO 13010G15KT 10SM BKN019 22/17 A2985 RMK AO2 PWINO
KCAV 171455Z AUTO 14010KT 10SM BKN020 21/17 A2985 RMK AO2 PWINO
KCAV 171435Z AUTO 12007G14KT 10SM CLR 21/17 A2986 RMK AO2 PWINO
KCAV 171415Z AUTO 09005KT 10SM CLR 20/18 A2986 RMK AO2 PWINO
KCAV 171355Z AUTO 11006KT 10SM FEW023 19/17 A2987 RMK AO2 PWINO
KCAV 171335Z AUTO 11006KT 10SM FEW023 FEW027 19/17 A2987 RMK AO2 PWINO
KCAV 171315Z AUTO 11006KT 10SM SCT026 18/17 A2987 RMK AO2 PWINO
KCAV 171255Z AUTO 13005KT 10SM FEW025 17/16 A2988 RMK AO2 PWINO
KCAV 171235Z AUTO 00000KT 10SM CLR 16/16 A2989 RMK AO2 PWINO
KCAV 171215Z AUTO 10004KT 9SM CLR 15/15 A2988 RMK AO2 PWINO
KCAV 171155Z AUTO 08003KT 9SM CLR 15/14 A2989 RMK AO2 PWINO
KCAV 171135Z AUTO 00000KT 8SM CLR 15/15 A2990 RMK AO2 PWINO
KCAV 171115Z AUTO 11005KT 10SM CLR 15/15 A2989 RMK AO2 PWINO
KCAV 171055Z AUTO 15005KT 10SM CLR 14/14 A2992 RMK AO2 PWINO
KCAV 171035Z AUTO 17003KT 10SM CLR 14/14 A2993 RMK AO2 PWINO
KCAV 171015Z AUTO 17004KT 10SM CLR 15/14 A2993 RMK AO2 PWINO
KCAV 170955Z AUTO 16005KT 10SM CLR 15/15 A2992 RMK AO2 PWINO
KCAV 170935Z AUTO 16006KT 10SM CLR 15/15 A2990 RMK AO2 PWINO
KCAV 170915Z AUTO 14005KT 10SM CLR 15/15 A2988 RMK AO2 PWINO
KCAV 170855Z AUTO 14006KT 10SM CLR 15/15 A2986 RMK AO2 PWINO
KCAV 170835Z AUTO 15006KT 10SM CLR 15/14 A2985 RMK AO2 PWINO
KCAV 170815Z AUTO 16006KT 10SM CLR 15/14 A2984 RMK AO2 PWINO
KCAV 170755Z AUTO 07005G11KT 10SM CLR 15/15 A2976 RMK AO2 PWINO
KCAV 170735Z AUTO 05009KT 10SM CLR 14/13 A2981 RMK AO2 PWINO
KCAV 170715Z AUTO 09007KT 14/13 A2987 RMK AO2 PWINO
KCAV 170655Z AUTO 09003KT 10SM CLR 14/13 A2989 RMK AO2 PWINO
KCAV 170635Z AUTO 00000KT 10SM CLR 14/13 A2990 RMK AO2 PWINO
KCAV 170615Z AUTO 00000KT 10SM CLR 13/13 A2991 RMK AO2 PWINO
KCAV 170555Z AUTO 14004KT 10SM CLR 13/13 A2991 RMK AO2 PWINO
KCAV 170535Z AUTO 00000KT 10SM CLR 13/13 A2992 RMK AO2 PWINO
KCAV 170515Z AUTO 00000KT 10SM CLR 14/14 A2992 RMK AO2 PWINO
KCAV 170455Z AUTO 08004KT 10SM CLR 14/14 A2990 RMK AO2 PWINO
KCAV 170435Z AUTO 00000KT 10SM CLR 14/14 A2991 RMK AO2 PWINO
KCAV 170415Z AUTO 00000KT 10SM CLR 15/15 A2991 RMK AO2 PWINO
KCAV 170355Z AUTO 00000KT 10SM CLR 15/14 A2991 RMK AO2 PWINO